Time;durP1;ratioP1;P1;durP2;ratioP2;P2;SDS_P1;SDS_P2;PMS_P1;PMS_P2;Temp;Humidity;BMP_temperature;BMP_pressure;BME280_temperature;BME280_humidity;BME280_pressure;Samples;Min_cycle;Max_cycle;Signal;HPM_P1;HPM_P2
2022/09/03 00:00:53;;;;;;;;;;;;;;;15.54;48.80;100916.53;5073281;28;19956;-64
2022/09/03 00:03:21;;;;;;;;;;;;;;;15.57;48.89;100912.94;5073229;28;19916;-64
2022/09/03 00:05:46;;;;;;;;;;;;;;;15.59;49.04;100914.66;5072909;28;19920;-64
2022/09/03 00:08:31;;;;;;;;;;;;;;;15.54;49.39;100913.84;5072974;28;19912;-64
2022/09/03 00:11:12;;;;;;;;;;;;;;;15.38;51.19;100918.53;5072868;28;19926;-64
2022/09/03 00:13:46;;;;;;;;;;;;;;;15.36;49.67;100911.47;5069820;28;19951;-64
2022/09/03 00:16:12;;;;;;;;;;;;;;;15.32;49.98;100907.97;5072925;28;19920;-64
2022/09/03 00:18:43;;;;;;;;;;;;;;;15.27;51.03;100904.47;5072683;28;19912;-64
2022/09/03 00:21:14;;;;;;;;;;;;;;;15.24;49.53;100918.72;5073081;28;19912;-64
2022/09/03 00:23:40;;;;;;;;;;;;;;;15.17;49.93;100906.38;5072809;28;19912;-64
2022/09/03 00:26:12;;;;;;;;;;;;;;;15.10;51.00;100913.59;5073024;28;19912;-64
2022/09/03 00:28:55;;;;;;;;;;;;;;;15.03;52.20;100913.66;5072553;28;19920;-63
2022/09/03 00:31:35;;;;;;;;;;;;;;;14.97;51.49;100904.88;5073017;28;19990;-64
2022/09/03 00:34:08;;;;;;;;;;;;;;;14.94;50.74;100907.59;5068971;28;19966;-64
2022/09/03 00:36:41;;;;;;;;;;;;;;;14.89;50.31;100908.53;5069189;28;19935;-63
2022/09/03 00:39:08;;;;;;;;;;;;;;;14.83;51.22;100906.81;5069565;28;19958;-63
2022/09/03 00:41:37;;;;;;;;;;;;;;;14.81;51.70;100911.31;5072667;28;19966;-64
2022/09/03 00:44:05;;;;;;;;;;;;;;;14.78;51.26;100913.97;5069354;28;19978;-63
2022/09/03 00:46:40;;;;;;;;;;;;;;;14.73;52.41;100905.19;5069108;28;19924;-63
2022/09/03 00:49:05;;;;;;;;;;;;;;;14.69;51.14;100900.78;5069653;28;19912;-63
2022/09/03 00:52:03;;;;;;;;;;;;;;;14.62;52.26;100908.84;5072530;28;19916;-64
2022/09/03 00:54:48;;;;;;;;;;;;;;;14.62;52.86;100907.94;4991348;28;19914;-64
2022/09/03 00:57:29;;;;;;;;;;;;;;;14.54;51.92;100902.69;4985115;28;19960;-62
2022/09/03 01:00:00;;;;;;;;;;;;;;;14.53;51.83;100903.56;4991056;28;19918;-63
2022/09/03 01:02:27;;;;;;;;;;;;;;;14.46;52.27;100904.56;4991051;28;20048;-62
2022/09/03 01:05:10;;;;;;;;;;;;;;;14.37;54.02;100908.22;4990995;28;20408;-62
2022/09/03 01:07:41;;;;;;;;;;;;;;;14.34;52.60;100902.91;4983979;28;19913;-62
2022/09/03 01:10:30;;;;;;;;;;;;;;;14.30;54.11;100907.38;4991184;28;19972;-64
2022/09/03 01:13:13;;;;;;;;;;;;;;;14.27;53.18;100907.41;4991189;28;19913;-62
2022/09/03 01:15:47;;;;;;;;;;;;;;;14.26;52.78;100900.31;4988466;28;19914;-62
2022/09/03 01:18:24;;;;;;;;;;;;;;;14.25;53.06;100897.69;4988686;28;19914;-62
2022/09/03 01:21:12;;;;;;;;;;;;;;;14.24;54.00;100901.22;4982074;28;19925;-64
2022/09/03 01:23:53;;;;;;;;;;;;;;;14.25;52.42;100901.22;4990425;28;20020;-64
2022/09/03 01:26:27;;;;;;;;;;;;;;;14.27;52.30;100891.47;4986615;28;19914;-63
2022/09/03 01:28:59;;;;;;;;;;;;;;;14.25;52.86;100898.56;4994906;28;19925;-62
2022/09/03 01:31:42;;;;;;;;;;;;;;;14.16;52.44;100903.97;5073837;28;20014;-64
2022/09/03 01:34:26;;;;;;;;;;;;;;;14.12;52.92;100905.78;5076227;28;20277;-62
2022/09/03 01:36:56;;;;;;;;;;;;;;;14.06;53.16;100897.84;5073393;28;20006;-62
2022/09/03 01:39:31;;;;;;;;;;;;;;;14.03;55.20;100907.66;5075888;28;19998;-62
2022/09/03 01:42:17;;;;;;;;;;;;;;;14.02;54.06;100901.41;5075405;28;19912;-63
2022/09/03 01:45:00;;;;;;;;;;;;;;;14.03;53.51;100905.84;5071977;28;19920;-62
2022/09/03 01:47:25;;;;;;;;;;;;;;;13.97;54.01;100897.94;5073592;28;20274;-62
2022/09/03 01:49:58;;;;;;;;;;;;;;;13.98;54.07;100901.47;5075386;28;19923;-63
2022/09/03 01:52:42;;;;;;;;;;;;;;;14.02;54.79;100898.75;5082397;28;20278;-62
2022/09/03 01:55:26;;;;;;;;;;;;;;;13.98;55.39;100897.06;5075775;28;19913;-62
2022/09/03 01:58:10;;;;;;;;;;;;;;;13.93;57.48;100904.19;5072708;28;19967;-63
2022/09/03 02:00:38;;;;;;;;;;;;;;;13.87;56.52;100891.81;5075410;28;19916;-62
2022/09/03 02:03:05;;;;;;;;;;;;;;;13.86;55.53;100900.72;5075098;28;19912;-62
2022/09/03 02:05:31;;;;;;;;;;;;;;;13.81;56.97;100907.81;5075356;28;19920;-62
2022/09/03 02:08:01;;;;;;;;;;;;;;;13.77;57.71;100908.72;5075257;28;19912;-63
2022/09/03 02:10:32;;;;;;;;;;;;;;;13.73;58.11;100909.66;5075136;28;19935;-62
2022/09/03 02:13:07;;;;;;;;;;;;;;;13.72;58.37;100905.25;5074974;28;19909;-62
2022/09/03 02:15:34;;;;;;;;;;;;;;;13.75;57.18;100907.88;5074891;28;19947;-63
2022/09/03 02:18:01;;;;;;;;;;;;;;;13.78;54.55;100902.53;5075137;28;19956;-62
2022/09/03 02:20:27;;;;;;;;;;;;;;;13.78;55.44;100898.09;5074836;28;19970;-64
2022/09/03 02:22:53;;;;;;;;;;;;;;;13.75;55.86;100897.25;5074730;28;19913;-62
2022/09/03 02:25:20;;;;;;;;;;;;;;;13.66;56.95;100902.63;5074919;28;19913;-62
2022/09/03 02:27:47;;;;;;;;;;;;;;;13.60;55.18;100895.56;5074578;28;19985;-63
2022/09/03 02:30:12;;;;;;;;;;;;;;;13.63;56.24;100892.00;5074701;28;20294;-62
2022/09/03 02:32:37;;;;;;;;;;;;;;;13.65;57.13;100887.59;5074679;28;20006;-61
2022/09/03 02:35:03;;;;;;;;;;;;;;;13.54;59.98;100896.53;5074534;28;19969;-62
2022/09/03 02:37:28;;;;;;;;;;;;;;;13.52;59.31;100906.25;5074401;28;19963;-62
2022/09/03 02:39:53;;;;;;;;;;;;;;;13.53;59.37;100899.19;5074620;28;19979;-62
2022/09/03 02:42:19;;;;;;;;;;;;;;;13.50;57.40;100902.75;5074442;28;19923;-64
2022/09/03 02:44:47;;;;;;;;;;;;;;;13.51;59.93;100893.00;5074591;28;20299;-64
2022/09/03 02:47:13;;;;;;;;;;;;;;;13.41;58.39;100897.47;5070367;28;19954;-63
2022/09/03 02:49:39;;;;;;;;;;;;;;;13.32;57.51;100892.19;5074272;28;19912;-64
2022/09/03 02:52:08;;;;;;;;;;;;;;;13.23;58.70;100903.75;5074387;28;19913;-64
2022/09/03 02:54:38;;;;;;;;;;;;;;;13.24;58.36;100900.22;5074589;28;19962;-63
2022/09/03 02:57:03;;;;;;;;;;;;;;;13.29;57.04;100905.50;5073959;28;19917;-64
2022/09/03 02:59:28;;;;;;;;;;;;;;;13.28;58.70;100898.41;5073940;28;19965;-64
2022/09/03 03:01:54;;;;;;;;;;;;;;;13.30;57.57;100896.66;5074341;28;19958;-64
2022/09/03 03:04:19;;;;;;;;;;;;;;;13.36;59.22;100892.19;5073979;28;19913;-63
2022/09/03 03:06:44;;;;;;;;;;;;;;;13.36;58.18;100899.28;5074033;28;19939;-64
2022/09/03 03:09:10;;;;;;;;;;;;;;;13.33;57.78;100889.53;5073789;28;20007;-64
2022/09/03 03:11:35;;;;;;;;;;;;;;;13.31;59.40;100903.69;5074008;28;20006;-63
2022/09/03 03:14:01;;;;;;;;;;;;;;;13.29;60.37;100905.50;5074080;28;19920;-64
2022/09/03 03:16:26;;;;;;;;;;;;;;;13.27;61.36;100901.97;5073754;28;20324;-63
2022/09/03 03:18:51;;;;;;;;;;;;;;;13.31;60.48;100904.59;5073664;28;19912;-64
2022/09/03 03:21:17;;;;;;;;;;;;;;;13.34;59.48;100901.03;5073841;28;19919;-63
2022/09/03 03:23:43;;;;;;;;;;;;;;;13.31;60.11;100896.63;5073765;28;19912;-64
2022/09/03 03:26:09;;;;;;;;;;;;;;;13.29;59.16;100894.88;5073656;28;19909;-64
2022/09/03 03:28:35;;;;;;;;;;;;;;;13.20;57.62;100901.13;5073524;28;19923;-63
2022/09/03 03:31:10;;;;;;;;;;;;;;;13.20;57.77;100898.47;5073534;28;19913;-63
2022/09/03 03:33:36;;;;;;;;;;;;;;;13.21;58.25;100895.81;5073422;28;20374;-64
2022/09/03 03:36:05;;;;;;;;;;;;;;;13.22;58.75;100896.66;5073827;28;19924;-64
2022/09/03 03:38:31;;;;;;;;;;;;;;;13.21;58.66;100898.44;5073514;28;20069;-63
2022/09/03 03:40:56;;;;;;;;;;;;;;;13.17;59.25;100899.34;5073370;28;19966;-64
2022/09/03 03:43:21;;;;;;;;;;;;;;;13.14;59.96;100895.84;5073775;28;20378;-64
2022/09/03 03:45:56;;;;;;;;;;;;;;;13.04;60.26;100893.22;5073247;28;19913;-63
2022/09/03 03:48:22;;;;;;;;;;;;;;;13.00;59.06;100895.91;5073003;28;19913;-64
2022/09/03 03:50:47;;;;;;;;;;;;;;;13.04;58.68;100892.34;5073580;28;20035;-64
2022/09/03 03:53:13;;;;;;;;;;;;;;;13.06;59.60;100895.88;5073201;28;20374;-63
2022/09/03 03:55:38;;;;;;;;;;;;;;;13.08;59.82;100894.09;5073137;28;19974;-64
2022/09/03 03:58:03;;;;;;;;;;;;;;;13.04;60.03;100897.66;5073212;28;19912;-63
2022/09/03 04:00:28;;;;;;;;;;;;;;;12.98;61.07;100898.56;5073009;28;19912;-64
2022/09/03 04:02:54;;;;;;;;;;;;;;;12.93;62.85;100905.69;5073159;28;20351;-64
2022/09/03 04:05:19;;;;;;;;;;;;;;;12.93;60.73;100903.03;5073506;28;19913;-63
2022/09/03 04:07:44;;;;;;;;;;;;;;;12.98;60.85;100897.69;5073044;28;20024;-63
2022/09/03 04:10:09;;;;;;;;;;;;;;;12.98;60.84;100893.25;5073167;28;20355;-63
2022/09/03 04:12:34;;;;;;;;;;;;;;;12.99;59.79;100888.81;5073343;28;20260;-63
2022/09/03 04:15:00;;;;;;;;;;;;;;;13.00;60.28;100901.22;5072896;28;19959;-63
2022/09/03 04:17:26;;;;;;;;;;;;;;;12.98;60.15;100895.03;5072621;28;20393;-63
2022/09/03 04:19:51;;;;;;;;;;;;;;;12.98;60.82;100901.22;5073716;28;19962;-63
2022/09/03 04:22:17;;;;;;;;;;;;;;;12.95;59.91;100892.41;5072913;28;20484;-64
2022/09/03 04:24:43;;;;;;;;;;;;;;;12.97;60.72;100887.97;5072953;28;19979;-64
2022/09/03 04:27:08;;;;;;;;;;;;;;;12.90;61.02;100889.75;5072916;28;19916;-64
2022/09/03 04:29:33;;;;;;;;;;;;;;;12.87;63.10;100888.03;5072599;28;19920;-63
2022/09/03 04:34:42;;;;;;;;;;;;;;;12.83;62.11;100890.66;5072240;28;19954;-63
2022/09/03 04:37:08;;;;;;;;;;;;;;;12.84;62.78;100889.78;5072640;28;19956;-63
2022/09/03 04:39:33;;;;;;;;;;;;;;;12.84;61.19;100882.72;5070058;28;20305;-63
2022/09/03 04:41:59;;;;;;;;;;;;;;;12.88;61.40;100883.59;5072911;28;19912;-64
2022/09/03 04:44:24;;;;;;;;;;;;;;;12.82;61.29;100892.44;5072689;28;20371;-64
2022/09/03 04:46:49;;;;;;;;;;;;;;;12.80;61.39;100891.59;5072375;28;20401;-64
2022/09/03 04:49:14;;;;;;;;;;;;;;;12.79;62.08;100892.47;5072983;28;19916;-64
2022/09/03 04:51:39;;;;;;;;;;;;;;;12.77;61.94;100896.00;5072562;28;19958;-63
2022/09/03 04:54:05;;;;;;;;;;;;;;;12.78;62.52;100896.00;5072473;28;19919;-63
2022/09/03 04:56:31;;;;;;;;;;;;;;;12.83;61.80;100894.22;5072971;28;19916;-63
2022/09/03 04:58:58;;;;;;;;;;;;;;;12.82;61.33;100894.22;5072337;28;19958;-63
2022/09/03 05:01:24;;;;;;;;;;;;;;;12.78;61.64;100903.09;5075940;28;19957;-63
2022/09/03 05:03:52;;;;;;;;;;;;;;;12.82;62.01;100896.88;5076409;28;20412;-63
2022/09/03 05:06:18;;;;;;;;;;;;;;;12.86;61.57;100902.16;5076489;28;19962;-63
2022/09/03 05:08:47;;;;;;;;;;;;;;;12.91;61.55;100903.00;5076117;28;19955;-63
2022/09/03 05:11:13;;;;;;;;;;;;;;;12.93;62.29;100897.72;5076411;28;19913;-63
2022/09/03 05:13:38;;;;;;;;;;;;;;;12.95;61.65;100897.72;5076447;28;19920;-64
2022/09/03 05:16:09;;;;;;;;;;;;;;;12.88;61.64;100892.41;5074817;28;19912;-63
2022/09/03 05:18:34;;;;;;;;;;;;;;;12.86;62.72;100898.63;5074695;28;20266;-64
2022/09/03 05:21:07;;;;;;;;;;;;;;;12.84;62.18;100901.31;5076209;28;19913;-64
2022/09/03 05:23:39;;;;;;;;;;;;;;;12.89;63.27;100896.84;5076069;28;19912;-63
2022/09/03 05:26:07;;;;;;;;;;;;;;;12.93;62.53;100895.06;5076055;28;19912;-64
2022/09/03 05:28:35;;;;;;;;;;;;;;;12.92;62.92;100890.66;5075670;28;19955;-64
2022/09/03 05:31:07;;;;;;;;;;;;;;;12.91;62.86;100892.41;5075752;28;19913;-63
2022/09/03 05:33:36;;;;;;;;;;;;;;;12.94;63.11;100899.47;5076093;28;19912;-64
2022/09/03 05:36:06;;;;;;;;;;;;;;;12.96;61.94;100894.16;5075812;28;19970;-61
2022/09/03 05:38:31;;;;;;;;;;;;;;;12.98;62.67;100892.41;5075510;28;19916;-62
2022/09/03 05:40:57;;;;;;;;;;;;;;;12.98;62.81;100892.41;5075607;28;19965;-61
2022/09/03 05:43:22;;;;;;;;;;;;;;;13.07;62.16;100897.63;5075892;28;19912;-61
2022/09/03 05:45:48;;;;;;;;;;;;;;;13.11;63.14;100888.78;5075682;28;20343;-62
2022/09/03 05:48:13;;;;;;;;;;;;;;;13.14;63.12;100896.72;5075656;28;19918;-61
2022/09/03 05:50:38;;;;;;;;;;;;;;;13.21;61.74;100895.81;5075560;28;20046;-61
2022/09/03 05:53:04;;;;;;;;;;;;;;;13.31;62.89;100891.31;5075557;28;19912;-61
2022/09/03 05:55:29;;;;;;;;;;;;;;;13.42;62.68;100894.81;5070650;28;19917;-61
2022/09/03 05:57:54;;;;;;;;;;;;;;;13.55;64.73;100892.94;5072040;28;20321;-61
2022/09/03 06:00:19;;;;;;;;;;;;;;;13.69;63.92;100892.84;5075143;28;19947;-62
2022/09/03 06:02:51;;;;;;;;;;;;;;;13.83;61.28;100898.03;5075521;28;19912;-61
2022/09/03 06:05:17;;;;;;;;;;;;;;;13.98;63.03;100896.16;5073820;28;19912;-62
2022/09/03 06:07:43;;;;;;;;;;;;;;;14.13;64.80;100896.03;5075165;28;19931;-61
2022/09/03 06:10:09;;;;;;;;;;;;;;;14.28;65.66;100889.66;5075371;28;20367;-61
2022/09/03 06:12:35;;;;;;;;;;;;;;;14.46;64.46;100896.59;5075256;28;19919;-64
2022/09/03 06:15:01;;;;;;;;;;;;;;;14.65;65.98;100897.31;5070881;28;19923;-62
2022/09/03 06:17:26;;;;;;;;;;;;;;;14.79;65.74;100892.69;5074956;28;19913;-61
2022/09/03 06:19:51;;;;;;;;;;;;;;;14.95;66.61;100900.47;5074991;28;19912;-62
2022/09/03 06:22:16;;;;;;;;;;;;;;;15.09;66.83;100895.84;5074885;28;20002;-61
2022/09/03 06:24:41;;;;;;;;;;;;;;;15.24;63.61;100897.41;5070063;28;20023;-65
2022/09/03 06:27:07;;;;;;;;;;;;;;;15.39;63.70;100901.66;5068595;28;20375;-64
2022/09/03 06:29:34;;;;;;;;;;;;;;;15.55;62.90;100899.63;5073530;28;20488;-64
2022/09/03 06:32:03;;;;;;;;;;;;;;;15.70;62.82;100895.84;5073168;28;19920;-64
2022/09/03 06:34:28;;;;;;;;;;;;;;;15.86;61.21;100901.84;5073128;28;19919;-64
2022/09/03 06:36:54;;;;;;;;;;;;;;;16.02;60.75;100903.34;5073875;28;19912;-65
2022/09/03 06:39:19;;;;;;;;;;;;;;;16.22;60.97;100894.09;5073684;28;19982;-65
2022/09/03 06:41:47;;;;;;;;;;;;;;;16.43;60.23;100899.97;5073595;28;19913;-65
2022/09/03 06:44:12;;;;;;;;;;;;;;;16.60;58.73;100900.50;5073030;28;19912;-64
2022/09/03 06:46:41;;;;;;;;;;;;;;;16.74;58.01;100903.75;5073060;28;19927;-64
2022/09/03 06:49:07;;;;;;;;;;;;;;;16.86;57.73;100907.09;5071291;28;19949;-64
2022/09/03 06:51:32;;;;;;;;;;;;;;;16.99;56.55;100908.63;5071057;28;19915;-63
2022/09/03 06:54:02;;;;;;;;;;;;;;;17.08;57.14;100903.09;5072162;28;19912;-64
2022/09/03 06:56:28;;;;;;;;;;;;;;;17.22;55.71;100909.91;5072553;28;19974;-64
2022/09/03 06:58:54;;;;;;;;;;;;;;;17.25;55.42;100910.72;5072947;28;19913;-65
2022/09/03 07:01:21;;;;;;;;;;;;;;;17.31;55.37;100909.69;5073596;28;19913;-64
2022/09/03 07:03:50;;;;;;;;;;;;;;;17.38;55.38;100900.63;5072932;28;20003;-64
2022/09/03 07:06:17;;;;;;;;;;;;;;;17.43;55.25;100900.56;5072971;28;19916;-64
2022/09/03 07:08:43;;;;;;;;;;;;;;;17.45;55.39;100906.72;5073087;28;19921;-63
2022/09/03 07:11:13;;;;;;;;;;;;;;;17.43;54.87;100904.09;5072982;28;20294;-62
2022/09/03 07:13:40;;;;;;;;;;;;;;;17.41;54.10;100911.25;5073131;28;19913;-65
2022/09/03 07:16:06;;;;;;;;;;;;;;;17.31;54.87;100909.69;5072736;28;19913;-63
2022/09/03 07:18:32;;;;;;;;;;;;;;;17.30;54.71;100913.31;5070020;28;20256;-64
2022/09/03 07:21:01;;;;;;;;;;;;;;;17.35;55.58;100906.06;5072650;28;19927;-63
2022/09/03 07:23:27;;;;;;;;;;;;;;;17.41;54.29;100916.59;5069442;28;19912;-62
2022/09/03 07:25:53;;;;;;;;;;;;;;;17.45;54.39;100911.22;5070454;28;20388;-63
2022/09/03 07:28:18;;;;;;;;;;;;;;;17.49;54.33;100904.84;5072578;28;19916;-64
2022/09/03 07:30:44;;;;;;;;;;;;;;;17.53;53.65;100901.19;5072913;28;19916;-63
2022/09/03 07:33:09;;;;;;;;;;;;;;;17.58;53.23;100904.66;5068633;28;20280;-65
2022/09/03 07:35:35;;;;;;;;;;;;;;;17.62;52.86;100909.03;5071885;28;19939;-64
2022/09/03 07:38:00;;;;;;;;;;;;;;;17.73;53.09;100904.25;5072500;28;19919;-64
2022/09/03 07:40:26;;;;;;;;;;;;;;;17.84;52.12;100904.03;5072716;28;19912;-64
2022/09/03 07:42:57;;;;;;;;;;;;;;;17.92;51.89;100914.56;5072276;28;19916;-63
2022/09/03 07:45:22;;;;;;;;;;;;;;;17.98;51.78;100914.38;5071888;28;20351;-64
2022/09/03 07:47:48;;;;;;;;;;;;;;;18.06;51.68;100909.72;5071143;28;19957;-64
2022/09/03 07:50:15;;;;;;;;;;;;;;;18.16;51.65;100917.50;5068564;28;19913;-64
2022/09/03 07:52:40;;;;;;;;;;;;;;;18.34;51.12;100906.31;5072781;28;19916;-64
2022/09/03 07:55:05;;;;;;;;;;;;;;;18.55;50.90;100912.00;5072108;28;20319;-64
2022/09/03 07:57:31;;;;;;;;;;;;;;;18.67;50.74;100914.34;5071843;28;19920;-64
2022/09/03 07:59:56;;;;;;;;;;;;;;;18.90;50.47;100910.16;5072539;28;19912;-64
2022/09/03 08:02:21;;;;;;;;;;;;;;;19.15;50.02;100915.69;5072029;28;19916;-64
2022/09/03 08:04:46;;;;;;;;;;;;;;;19.27;49.49;100920.66;5070564;28;20291;-64
2022/09/03 08:07:11;;;;;;;;;;;;;;;19.35;49.49;100915.06;5072577;28;19919;-64
2022/09/03 08:09:37;;;;;;;;;;;;;;;19.51;48.53;100918.13;5072206;28;19934;-64
2022/09/03 08:12:02;;;;;;;;;;;;;;;19.64;47.64;100914.16;5072987;28;20383;-64
2022/09/03 08:14:30;;;;;;;;;;;;;;;19.70;47.09;100921.09;5072446;28;19913;-63
2022/09/03 08:16:56;;;;;;;;;;;;;;;19.80;47.72;100921.72;5072853;28;19909;-62
2022/09/03 08:19:22;;;;;;;;;;;;;;;19.88;47.30;100916.09;5072589;28;19922;-62
2022/09/03 08:21:47;;;;;;;;;;;;;;;19.93;47.02;100914.13;5072823;28;19965;-61
2022/09/03 08:24:14;;;;;;;;;;;;;;;19.97;46.91;100919.34;5073025;28;19913;-64
2022/09/03 08:26:41;;;;;;;;;;;;;;;20.07;46.58;100930.66;5068963;28;20399;-62
2022/09/03 08:29:06;;;;;;;;;;;;;;;20.15;46.56;100928.59;5072542;28;19917;-61
2022/09/03 08:31:32;;;;;;;;;;;;;;;20.19;46.45;100923.97;5064770;28;20359;-63
2022/09/03 08:33:58;;;;;;;;;;;;;;;20.20;45.64;100931.13;5067600;28;19952;-62
2022/09/03 08:36:28;;;;;;;;;;;;;;;20.24;45.90;100930.09;5075926;28;20435;-62
2022/09/03 08:38:55;;;;;;;;;;;;;;;20.35;45.63;100930.56;5070796;28;19919;-62
2022/09/03 08:41:20;;;;;;;;;;;;;;;20.66;45.03;100934.91;5073162;28;19912;-62
2022/09/03 08:43:48;;;;;;;;;;;;;;;21.28;43.69;100935.25;5076655;28;19920;-62
2022/09/03 08:46:13;;;;;;;;;;;;;;;21.56;43.46;100939.59;5076763;28;19912;-62
2022/09/03 08:48:39;;;;;;;;;;;;;;;21.56;43.75;100940.44;5075015;28;20346;-62
2022/09/03 08:51:05;;;;;;;;;;;;;;;21.88;42.99;100938.25;5076493;28;19919;-61
2022/09/03 08:53:38;;;;;;;;;;;;;;;22.73;41.07;100934.66;5076673;28;20322;-62
2022/09/03 08:56:13;;;;;;;;;;;;;;;23.65;38.70;100932.19;5076417;28;20010;-62
2022/09/03 08:58:43;;;;;;;;;;;;;;;24.46;38.35;100928.16;5076527;28;19913;-62
2022/09/03 09:01:10;;;;;;;;;;;;;;;25.19;38.10;100933.25;5076440;28;19924;-63
2022/09/03 09:03:47;;;;;;;;;;;;;;;25.75;37.27;100934.59;5076312;28;19995;-63
2022/09/03 09:06:12;;;;;;;;;;;;;;;26.26;35.77;100933.50;5076323;28;19935;-64
2022/09/03 09:08:45;;;;;;;;;;;;;;;26.77;36.79;100934.00;5076382;28;19908;-64
2022/09/03 09:11:13;;;;;;;;;;;;;;;27.33;37.56;100929.63;5076108;28;19999;-65
2022/09/03 09:13:39;;;;;;;;;;;;;;;27.74;33.55;100936.91;5075967;28;19913;-65
2022/09/03 09:16:23;;;;;;;;;;;;;;;28.04;33.38;100934.00;5076167;28;19935;-64
2022/09/03 09:19:00;;;;;;;;;;;;;;;28.45;33.71;100938.44;5076012;28;19912;-65
2022/09/03 09:21:28;;;;;;;;;;;;;;;28.86;30.11;100941.97;5072836;28;20371;-65
2022/09/03 09:23:58;;;;;;;;;;;;;;;28.90;30.12;100942.63;5076258;28;19917;-66
2022/09/03 09:26:23;;;;;;;;;;;;;;;28.49;30.98;100942.69;5072411;28;19919;-64
2022/09/03 09:29:04;;;;;;;;;;;;;;;28.57;32.52;100941.28;5075839;28;19916;-65
2022/09/03 09:31:30;;;;;;;;;;;;;;;28.17;33.25;100934.03;5073360;28;19917;-64
2022/09/03 09:34:00;;;;;;;;;;;;;;;27.08;33.64;100928.47;5075989;28;19957;-65
2022/09/03 09:36:27;;;;;;;;;;;;;;;26.51;34.94;100924.72;5075659;28;19912;-65
2022/09/03 09:38:52;;;;;;;;;;;;;;;26.41;33.55;100919.00;5075962;28;19923;-65
2022/09/03 09:41:18;;;;;;;;;;;;;;;26.30;33.56;100921.50;5066016;28;19920;-65
2022/09/03 09:43:46;;;;;;;;;;;;;;;26.76;36.15;100923.25;5073209;28;19961;-65
2022/09/03 09:46:18;;;;;;;;;;;;;;;28.18;34.20;100928.50;5073769;28;19923;-64
2022/09/03 09:48:54;;;;;;;;;;;;;;;29.37;33.26;100938.31;5072679;28;19912;-65
2022/09/03 09:51:29;;;;;;;;;;;;;;;30.27;30.02;100934.38;5075260;28;20007;-64
2022/09/03 09:54:02;;;;;;;;;;;;;;;30.93;28.63;100935.50;5075662;28;19963;-64
2022/09/03 09:56:28;;;;;;;;;;;;;;;31.73;30.23;100946.38;5071760;28;19986;-65
2022/09/03 09:59:04;;;;;;;;;;;;;;;32.56;29.34;100944.78;5075198;28;19956;-65
2022/09/03 10:01:30;;;;;;;;;;;;;;;32.99;25.79;100938.28;5071450;28;19912;-65
2022/09/03 10:03:57;;;;;;;;;;;;;;;32.11;25.36;100945.00;5075005;28;19958;-65
2022/09/03 10:09:09;;;;;;;;;;;;;;;32.62;26.61;100940.63;5073140;28;19914;-65
2022/09/03 10:11:38;;;;;;;;;;;;;;;33.03;24.43;100930.69;5075276;28;19918;-72
2022/09/03 10:14:07;;;;;;;;;;;;;;;33.42;25.55;100928.09;5074898;28;19913;-63
2022/09/03 10:16:37;;;;;;;;;;;;;;;33.88;24.16;100937.56;5075284;28;19919;-62
2022/09/03 10:19:11;;;;;;;;;;;;;;;34.28;25.14;100934.84;5074621;28;19966;-65
2022/09/03 10:21:50;;;;;;;;;;;;;;;35.29;22.60;100934.28;5074838;28;19913;-63
2022/09/03 10:24:27;;;;;;;;;;;;;;;36.22;20.97;100928.56;5074712;28;19912;-63
2022/09/03 10:26:54;;;;;;;;;;;;;;;36.54;21.02;100921.63;5074554;28;19913;-63
2022/09/03 10:29:21;;;;;;;;;;;;;;;36.63;21.70;100927.03;5074462;28;19916;-63
2022/09/03 10:32:04;;;;;;;;;;;;;;;36.81;23.55;100926.13;5074733;28;19912;-62
2022/09/03 10:34:52;;;;;;;;;;;;;;;36.67;19.91;100926.69;5070765;28;20379;-63
2022/09/03 10:37:24;;;;;;;;;;;;;;;36.17;20.07;100919.94;5073064;28;19956;-62
2022/09/03 10:40:05;;;;;;;;;;;;;;;35.17;21.01;100922.59;5074550;28;20383;-62
2022/09/03 10:42:36;;;;;;;;;;;;;;;35.81;22.48;100919.97;5071011;28;20273;-62
2022/09/03 10:45:02;;;;;;;;;;;;;;;36.89;22.40;100928.94;5071370;28;20262;-62
2022/09/03 10:47:37;;;;;;;;;;;;;;;37.81;21.07;100934.63;5070343;28;20034;-63
2022/09/03 10:50:02;;;;;;;;;;;;;;;38.40;19.87;100919.00;5070817;28;19917;-63
2022/09/03 10:52:37;;;;;;;;;;;;;;;38.37;18.25;100920.19;5074225;28;19946;-63
2022/09/03 10:55:21;;;;;;;;;;;;;;;38.03;19.76;100921.22;5070873;28;20374;-61
2022/09/03 10:58:00;;;;;;;;;;;;;;;37.88;19.60;100918.28;5073303;28;19966;-62
2022/09/03 11:00:29;;;;;;;;;;;;;;;38.74;18.13;100916.03;5074168;28;19963;-63
2022/09/03 11:03:13;;;;;;;;;;;;;;;38.94;17.50;100915.59;5073729;28;19966;-63
2022/09/03 11:05:55;;;;;;;;;;;;;;;38.76;20.34;100921.38;5071477;28;19912;-63
2022/09/03 11:08:23;;;;;;;;;;;;;;;39.12;19.24;100916.25;5073883;28;20340;-64
2022/09/03 11:10:52;;;;;;;;;;;;;;;39.15;18.54;100923.34;5073763;28;19995;-63
2022/09/03 11:13:32;;;;;;;;;;;;;;;38.42;19.18;100923.31;5074040;28;20290;-63
2022/09/03 11:15:59;;;;;;;;;;;;;;;38.56;19.68;100918.09;5069580;28;19959;-63
2022/09/03 11:18:33;;;;;;;;;;;;;;;39.48;16.81;100912.97;5073502;28;20339;-64
2022/09/03 11:21:03;;;;;;;;;;;;;;;39.42;16.97;100919.19;5068348;28;19912;-64
2022/09/03 11:23:30;;;;;;;;;;;;;;;39.30;18.11;100920.66;5069841;28;19979;-62
2022/09/03 11:25:57;;;;;;;;;;;;;;;39.42;17.48;100912.81;5073585;28;19923;-63
2022/09/03 11:28:34;;;;;;;;;;;;;;;39.43;16.57;100900.75;5071378;28;19926;-64
2022/09/03 11:31:12;;;;;;;;;;;;;;;39.45;18.49;100907.78;5068300;28;19920;-62
2022/09/03 11:33:40;;;;;;;;;;;;;;;40.43;18.25;100902.59;5073552;28;20034;-63
2022/09/03 11:36:06;;;;;;;;;;;;;;;41.13;16.28;100914.28;5073257;28;19912;-63
2022/09/03 11:38:31;;;;;;;;;;;;;;;41.35;17.08;100906.06;5071417;28;19962;-62
2022/09/03 11:41:02;;;;;;;;;;;;;;;41.67;15.48;100910.25;5073343;28;19912;-62
2022/09/03 11:43:32;;;;;;;;;;;;;;;41.16;15.60;100902.81;5073054;28;19916;-62
2022/09/03 11:46:12;;;;;;;;;;;;;;;41.42;16.48;100904.22;5073212;28;19938;-62
2022/09/03 11:48:38;;;;;;;;;;;;;;;42.08;16.18;100903.22;5073002;28;19912;-62
2022/09/03 11:51:03;;;;;;;;;;;;;;;42.62;15.53;100901.75;5073236;28;19918;-62
2022/09/03 11:53:35;;;;;;;;;;;;;;;42.57;16.42;100902.34;5073170;28;19916;-62
2022/09/03 11:56:03;;;;;;;;;;;;;;;41.85;15.75;100904.28;5073043;28;20264;-62
2022/09/03 11:58:31;;;;;;;;;;;;;;;42.42;14.54;100905.19;5072887;28;19937;-62
2022/09/03 12:00:57;;;;;;;;;;;;;;;42.29;17.24;100905.09;5073322;28;19951;-62
2022/09/03 12:03:40;;;;;;;;;;;;;;;42.32;14.41;100908.34;5072905;28;20260;-62
2022/09/03 12:06:11;;;;;;;;;;;;;;;42.19;15.03;100908.25;5072930;28;19961;-62
2022/09/03 12:08:52;;;;;;;;;;;;;;;42.45;15.30;100915.94;5071265;28;19939;-62
2022/09/03 12:11:36;;;;;;;;;;;;;;;42.88;15.54;100912.16;5069907;28;19919;-62
2022/09/03 12:14:13;;;;;;;;;;;;;;;43.00;14.61;100907.72;5072974;28;19916;-62
2022/09/03 12:16:57;;;;;;;;;;;;;;;42.97;14.79;100913.69;5073091;28;19965;-62
2022/09/03 12:19:41;;;;;;;;;;;;;;;43.49;15.41;100905.00;5070253;28;19916;-62
2022/09/03 12:22:12;;;;;;;;;;;;;;;44.21;14.73;100913.66;5072876;28;19951;-62
2022/09/03 12:24:37;;;;;;;;;;;;;;;44.39;12.82;100913.88;5072636;28;20429;-62
2022/09/03 12:27:03;;;;;;;;;;;;;;;44.35;14.79;100909.81;5072721;28;20022;-63
2022/09/03 12:29:30;;;;;;;;;;;;;;;44.45;15.24;100902.94;5072651;28;19966;-63
2022/09/03 12:32:04;;;;;;;;;;;;;;;44.24;14.95;100902.09;5072913;28;19948;-63
2022/09/03 12:34:30;;;;;;;;;;;;;;;44.32;14.54;100901.91;5072617;28;19959;-63
2022/09/03 12:36:55;;;;;;;;;;;;;;;44.88;15.48;100894.06;5072712;28;20317;-63
2022/09/03 12:39:25;;;;;;;;;;;;;;;45.81;13.96;100895.56;5072436;28;20354;-63
2022/09/03 12:41:57;;;;;;;;;;;;;;;46.36;13.81;100903.31;5072775;28;20325;-63
2022/09/03 12:44:24;;;;;;;;;;;;;;;46.95;13.59;100897.31;5072740;28;19913;-63
2022/09/03 12:46:58;;;;;;;;;;;;;;;47.06;11.58;100901.31;5072841;28;19939;-63
2022/09/03 12:49:24;;;;;;;;;;;;;;;46.23;13.82;100900.66;5072489;28;19931;-63
2022/09/03 12:51:50;;;;;;;;;;;;;;;46.28;11.86;100895.22;5072768;28;19912;-63